»·PEaware :: N2PD KSNA-KCMA

N2PD :: KSNA-KCMA

FLIGHT INFORMATION

Flight Status: Arrived
Operator: Privately registered:
United States
More flights under this callsign
Pilot: Daniel P. (20187)
Aircraft: SOCATA TBM-900
(TBM9)
More flights by this aircraft type
Origin: KSNA John Wayne-Orange Co
United States
Destination: KCMA Camarillo
United States
More flights between these airports :: More routes between these airports
Route: +SLI V23 LAX VNY
File this flight plan on PilotEdge
Remarks: CSTP29A
Altitude:
(Current/Filed)
6,000ft
Speed:
(Current/Filed)
200kts
Departed: 10-Oct-19 09:07 AM
Arrived: 10-Oct-19 09:35 AM
Distance/Time
Traveled:
68nm/0:28
Distance/Time
To Go:
Arrived

Flight Plot

Page will automatically refresh every two minutes.


Map Options




Map Legend


Flown Route
Filed Route
Departure Airport
Arrival Airport
Navaid (VOR, NDB)
Fix

Horizontal Profiles

Position Reports

Time Latitude Longitude Heading Altitude Ground
Speed
10-Oct-19 08:40 33.674851 -117.871639 37 59ft 0kts
10-Oct-19 08:41 33.674851 -117.871639 37 59ft 0kts
10-Oct-19 08:42 33.674851 -117.871639 37 59ft 0kts
10-Oct-19 08:43 33.674851 -117.871639 37 59ft 0kts
10-Oct-19 08:44 33.674851 -117.871639 37 59ft 0kts
10-Oct-19 08:45 33.674851 -117.871639 37 59ft 0kts
10-Oct-19 08:46 33.674851 -117.871639 37 59ft 0kts
10-Oct-19 08:47 33.674851 -117.871639 37 59ft 0kts
10-Oct-19 08:48 33.674851 -117.871639 37 59ft 0kts
10-Oct-19 08:49 33.674851 -117.871639 37 59ft 0kts
10-Oct-19 08:50 33.674851 -117.871639 37 59ft 0kts
10-Oct-19 08:51 33.674851 -117.871639 37 59ft 0kts
10-Oct-19 08:52 33.674851 -117.871639 37 59ft 0kts
10-Oct-19 08:53 33.674851 -117.871639 37 59ft 0kts
10-Oct-19 08:54 33.674851 -117.871639 37 59ft 0kts
10-Oct-19 08:55 33.674851 -117.871639 37 59ft 0kts
10-Oct-19 08:56 33.674851 -117.871639 37 59ft 0kts
10-Oct-19 08:57 33.674851 -117.871639 37 59ft 0kts
10-Oct-19 08:58 33.674851 -117.871639 37 59ft 0kts
10-Oct-19 08:59 33.674851 -117.871639 37 59ft 0kts
10-Oct-19 09:00 33.674851 -117.871639 37 59ft 0kts
10-Oct-19 09:01 33.674851 -117.871639 37 59ft 0kts
10-Oct-19 09:02 33.674762 -117.870913 31 59ft 6kts
10-Oct-19 09:03 33.677944 -117.868890 28 59ft 10kts
10-Oct-19 09:04 33.680839 -117.867247 28 59ft 9kts
10-Oct-19 09:05 33.681212 -117.866438 115 59ft 0kts
10-Oct-19 09:06 33.668942 -117.872917 209 308ft 130kts
10-Oct-19 09:07 33.624108 -117.883178 186 1993ft 173kts
10-Oct-19 09:08 33.574624 -117.890388 186 3888ft 174kts
10-Oct-19 09:09 33.548262 -117.947047 262 4003ft 228kts
10-Oct-19 09:10 33.585621 -117.999661 318 5243ft 196kts
10-Oct-19 09:11 33.626223 -118.048499 316 6002ft 221kts
10-Oct-19 09:12 33.671204 -118.104354 316 5989ft 227kts
10-Oct-19 09:13 33.716098 -118.160291 316 5984ft 227kts
10-Oct-19 09:14 33.760621 -118.215850 316 5986ft 228kts
10-Oct-19 09:15 33.804926 -118.271515 317 5992ft 226kts
10-Oct-19 09:16 33.849551 -118.327105 315 5986ft 228kts
10-Oct-19 09:17 33.893882 -118.382698 315 6000ft 227kts
10-Oct-19 09:18 33.939214 -118.437097 322 5992ft 226kts
10-Oct-19 09:19 33.985092 -118.483399 321 5285ft 203kts
10-Oct-19 09:20 34.025744 -118.524609 322 4971ft 174kts
10-Oct-19 09:21 34.061829 -118.561808 322 4980ft 158kts
10-Oct-19 09:22 34.095384 -118.596520 322 4988ft 152kts
10-Oct-19 09:23 34.127334 -118.630026 322 4998ft 149kts
10-Oct-19 09:24 34.145589 -118.683479 228 5011ft 235kts
10-Oct-19 09:25 34.110652 -118.741572 281 5010ft 239kts
10-Oct-19 09:26 34.122978 -118.821449 281 4991ft 239kts
10-Oct-19 09:27 34.135461 -118.901210 281 5013ft 237kts
10-Oct-19 09:28 34.147312 -118.977841 282 4838ft 215kts
10-Oct-19 09:30 34.171433 -119.044983 293 3193ft 208kts
10-Oct-19 09:31 34.184096 -119.113307 277 1751ft 203kts
10-Oct-19 09:32 34.203124 -119.165692 351 1191ft 141kts
10-Oct-19 09:33 34.213587 -119.132722 84 525ft 97kts
10-Oct-19 09:34 34.213780 -119.098443 83 64ft 78kts
10-Oct-19 09:35 34.213623 -119.076310 99 82ft 22kts
10-Oct-19 09:36 34.209824 -119.075024 216 79ft 18kts

Navigation Log

Ident Type
Flight plan parsing failed, navigation log unavailable